Time;durP1;ratioP1;P1;durP2;ratioP2;P2;SDS_P1;SDS_P2;PMS_P1;PMS_P2;Temp;Humidity;BMP_temperature;BMP_pressure;BME280_temperature;BME280_humidity;BME280_pressure;Samples;Min_cycle;Max_cycle;Signal;HPM_P1;HPM_P2
2021/11/01 00:00:59;;;;;;;26.02;17.85;;;;;;;5.59;71.32;95851.72;4832133;29;20042;-89
2021/11/01 00:03:25;;;;;;;24.45;17.45;;;;;;;5.31;71.26;95831.88;4837131;29;20506;-88
2021/11/01 00:05:51;;;;;;;26.98;18.70;;;;;;;5.20;71.56;95837.59;4827987;29;20029;-89
2021/11/01 00:08:17;;;;;;;25.48;17.75;;;;;;;5.31;71.66;95843.41;4828175;29;20041;-91
2021/11/01 00:10:43;;;;;;;26.17;18.25;;;;;;;5.30;71.90;95828.44;4820892;29;20026;-89
2021/11/01 00:13:08;;;;;;;26.80;18.02;;;;;;;5.50;72.34;95852.41;4823417;29;20083;-89
2021/11/01 00:15:35;;;;;;;24.60;17.52;;;;;;;5.23;71.85;95809.81;4828112;29;20029;-89
2021/11/01 00:18:00;;;;;;;23.80;16.70;;;;;;;5.33;71.76;95822.19;4818704;29;20058;-89
2021/11/01 00:20:26;;;;;;;21.00;15.98;;;;;;;5.43;71.52;95839.16;4809736;29;20444;-91
2021/11/01 00:22:52;;;;;;;24.85;16.15;;;;;;;5.53;71.18;95851.53;4809488;29;20026;-90
2021/11/01 00:25:21;;;;;;;24.63;16.33;;;;;;;5.58;70.41;95858.28;4825894;29;20026;-91
2021/11/01 00:27:48;;;;;;;20.73;15.35;;;;;;;5.32;70.54;95819.91;4809536;29;20034;-91
2021/11/01 00:30:14;;;;;;;20.85;15.60;;;;;;;5.52;70.43;95852.72;4837816;29;20033;-88
2021/11/01 00:32:41;;;;;;;24.42;15.27;;;;;;;5.22;70.28;95806.38;4832017;29;20026;-91
2021/11/01 00:35:07;;;;;;;24.38;15.55;;;;;;;5.24;70.42;95808.63;4827772;29;20529;-92
2021/11/01 00:37:33;;;;;;;23.27;16.27;;;;;;;5.47;70.66;95855.97;4827776;29;20037;-91
2021/11/01 00:40:00;;;;;;;22.70;16.63;;;;;;;5.06;71.52;95782.31;4827659;29;20044;-91
2021/11/01 00:42:26;;;;;;;22.05;14.70;;;;;;;5.24;70.98;95812.06;4827378;29;20033;-91
2021/11/01 00:44:52;;;;;;;23.42;15.82;;;;;;;5.15;70.37;95805.84;4827421;29;20040;-90
2021/11/01 00:47:18;;;;;;;20.38;14.50;;;;;;;5.22;71.19;95808.31;4827491;29;20030;-91
2021/11/01 00:49:45;;;;;;;20.63;14.50;;;;;;;5.09;71.64;95802.94;4843640;29;20034;-91
2021/11/01 00:52:10;;;;;;;20.40;15.32;;;;;;;5.11;71.08;95808.66;4827287;29;20042;-91
2021/11/01 00:54:36;;;;;;;20.17;15.25;;;;;;;5.42;71.86;95816.84;4827422;29;20086;-91
2021/11/01 00:57:04;;;;;;;21.08;15.32;;;;;;;5.20;71.50;95791.84;4826821;29;20036;-92
2021/11/01 00:59:29;;;;;;;19.67;14.15;;;;;;;5.23;72.02;95790.97;4827530;29;20145;-91
2021/11/01 01:01:55;;;;;;;20.20;14.13;;;;;;;5.26;71.66;95793.53;4827351;29;20029;-92
2021/11/01 01:04:24;;;;;;;19.13;14.32;;;;;;;5.20;72.65;95770.28;4827255;29;20022;-91
2021/11/01 01:06:50;;;;;;;22.55;14.88;;;;;;;5.08;71.98;95750.31;4827365;29;20038;-91
2021/11/01 01:09:16;;;;;;;20.40;13.32;;;;;;;5.39;71.83;95784.69;4827391;29;20117;-91
2021/11/01 01:11:42;;;;;;;19.73;13.68;;;;;;;5.42;72.09;95789.19;4827163;29;20145;-91
2021/11/01 01:14:07;;;;;;;20.17;13.52;;;;;;;5.20;72.03;95781.06;4826919;29;20550;-92
2021/11/01 01:16:41;;;;;;;19.20;13.27;;;;;;;5.29;72.49;95762.31;4827144;29;20126;-91
2021/11/01 01:19:15;;;;;;;19.00;13.65;;;;;;;5.33;71.58;95748.72;4827292;29;20112;-90
2021/11/01 01:24:24;;;;;;;18.20;12.75;;;;;;;5.31;71.38;95729.53;4843448;29;20518;-90
2021/11/01 01:26:50;;;;;;;17.52;12.48;;;;;;;5.50;70.90;95752.75;4827074;29;20026;-90
2021/11/01 01:29:16;;;;;;;17.80;12.43;;;;;;;5.56;71.54;95744.84;4827170;29;20491;-90
2021/11/01 01:31:41;;;;;;;17.70;11.93;;;;;;;5.62;71.20;95724.97;4844594;29;20487;-90
2021/11/01 01:34:08;;;;;;;21.65;11.43;;;;;;;5.83;70.93;95755.03;4845037;29;20478;-90
2021/11/01 01:36:33;;;;;;;15.27;12.07;;;;;;;5.92;70.15;95744.34;4861417;29;20061;-90
2021/11/01 01:38:59;;;;;;;20.73;12.80;;;;;;;5.81;70.27;95733.94;4834098;29;20178;-90
2021/11/01 01:41:28;;;;;;;17.30;12.52;;;;;;;5.84;70.43;95722.25;4826862;29;20026;-90
2021/11/01 01:43:59;;;;;;;16.65;12.57;;;;;;;5.85;70.36;95728.38;4826902;29;20041;-90
2021/11/01 01:46:26;;;;;;;16.15;12.43;;;;;;;6.17;70.63;95764.97;4815831;29;20034;-91
2021/11/01 01:48:53;;;;;;;16.63;11.82;;;;;;;6.04;69.74;95746.94;4825021;29;20488;-90
2021/11/01 01:51:19;;;;;;;14.85;11.70;;;;;;;6.21;69.30;95754.81;4808851;29;20758;-90
2021/11/01 01:53:46;;;;;;;15.30;11.77;;;;;;;5.94;68.67;95736.56;4812098;29;20399;-90
2021/11/01 01:56:12;;;;;;;15.38;11.27;;;;;;;5.98;68.27;95745.28;4808367;29;20121;-91
2021/11/01 01:58:45;;;;;;;17.33;12.40;;;;;;;6.11;69.31;95759.41;4808736;29;20073;-91
2021/11/01 02:01:14;;;;;;;15.48;12.13;;;;;;;5.82;69.09;95724.66;4809101;29;20387;-91
2021/11/01 02:03:42;;;;;;;17.63;13.02;;;;;;;5.91;69.14;95740.09;4824789;29;20023;-91
2021/11/01 02:06:11;;;;;;;15.77;11.82;;;;;;;5.94;68.56;95750.78;4814352;29;20058;-91
2021/11/01 02:08:44;;;;;;;15.25;11.35;;;;;;;5.62;68.61;95718.84;4829149;29;20033;-90
2021/11/01 02:11:15;;;;;;;16.42;11.63;;;;;;;5.58;68.48;95708.19;4845758;29;20399;-90
2021/11/01 02:13:44;;;;;;;15.60;11.25;;;;;;;5.57;69.35;95714.75;4828474;29;20072;-91
2021/11/01 02:16:11;;;;;;;16.67;10.88;;;;;;;5.51;68.47;95698.41;4828511;29;20034;-90
2021/11/01 02:18:41;;;;;;;14.60;11.18;;;;;;;5.30;68.35;95677.63;4829842;29;20498;-90
2021/11/01 02:21:12;;;;;;;16.85;11.90;;;;;;;5.77;68.99;95738.69;4837295;29;20490;-90
2021/11/01 02:24:04;;;;;;;15.18;11.48;;;;;;;5.69;68.42;95745.50;4827540;29;20508;-90
2021/11/01 02:26:32;;;;;;;14.23;11.50;;;;;;;5.20;69.15;95681.44;4811352;29;20026;-90
2021/11/01 02:28:59;;;;;;;16.00;10.82;;;;;;;5.36;68.92;95697.41;4811548;29;20057;-90
2021/11/01 02:31:25;;;;;;;15.93;11.40;;;;;;;5.44;68.83;95700.63;4857540;29;20034;-90
2021/11/01 02:33:51;;;;;;;16.42;11.80;;;;;;;5.57;68.55;95725.53;4847973;29;20037;-91
2021/11/01 02:36:18;;;;;;;18.25;12.60;;;;;;;5.47;68.98;95691.66;4852894;29;20046;-91
2021/11/01 02:38:49;;;;;;;16.88;11.45;;;;;;;5.55;69.05;95708.31;4812105;29;20113;-90
2021/11/01 02:41:20;;;;;;;17.50;11.27;;;;;;;5.35;69.14;95682.44;4826550;29;20441;-90
2021/11/01 02:43:51;;;;;;;18.85;11.70;;;;;;;5.59;68.60;95727.78;4826366;29;20038;-91
2021/11/01 02:46:17;;;;;;;18.17;11.63;;;;;;;5.49;69.67;95703.50;4826318;29;20034;-91
2021/11/01 02:48:48;;;;;;;17.15;11.25;;;;;;;5.38;68.67;95692.34;4826280;29;20034;-90
2021/11/01 02:51:16;;;;;;;17.08;12.05;;;;;;;5.35;69.40;95695.91;4829078;29;20040;-90
2021/11/01 02:53:43;;;;;;;15.35;11.70;;;;;;;5.60;69.24;95713.91;4829108;29;20152;-91
2021/11/01 02:56:10;;;;;;;17.65;13.10;;;;;;;5.17;68.83;95661.53;4829014;29;20025;-91
2021/11/01 02:58:36;;;;;;;16.90;11.73;;;;;;;5.17;69.18;95671.56;4829299;29;20466;-91
2021/11/01 03:01:02;;;;;;;14.80;10.90;;;;;;;5.38;69.10;95697.75;4829227;29;20034;-90
2021/11/01 03:03:28;;;;;;;18.88;12.63;;;;;;;5.38;68.73;95686.19;4829688;29;20025;-91
2021/11/01 03:05:54;;;;;;;16.48;12.60;;;;;;;5.41;68.78;95702.25;4828924;29;20064;-90
2021/11/01 03:08:56;;;;;;;17.30;11.70;;;;;;;5.62;69.36;95708.06;4829113;29;20057;-91
2021/11/01 03:11:23;;;;;;;16.25;12.50;;;;;;;5.49;69.58;95718.91;4828823;29;20124;-91
2021/11/01 03:13:49;;;;;;;16.08;12.13;;;;;;;5.49;69.43;95719.66;4829009;29;20030;-91
2021/11/01 03:16:16;;;;;;;17.40;12.88;;;;;;;5.26;68.96;95669.66;4828878;29;20037;-91
2021/11/01 03:18:48;;;;;;;17.48;12.30;;;;;;;5.02;69.41;95659.78;4828272;29;20113;-90
2021/11/01 03:21:17;;;;;;;17.23;12.30;;;;;;;5.19;69.74;95691.47;4829014;29;20486;-91
2021/11/01 03:23:47;;;;;;;17.25;12.60;;;;;;;5.15;69.99;95676.63;4829047;29;20032;-90
2021/11/01 03:26:18;;;;;;;16.08;12.18;;;;;;;5.32;69.51;95706.81;4828903;29;20042;-91
2021/11/01 03:28:48;;;;;;;15.20;11.65;;;;;;;5.27;69.71;95700.03;4828612;29;20033;-91
2021/11/01 03:31:14;;;;;;;17.08;11.10;;;;;;;4.99;69.79;95653.31;4828757;29;20037;-91
2021/11/01 03:33:42;;;;;;;14.35;10.65;;;;;;;4.98;70.27;95673.34;4828694;29;20026;-90
2021/11/01 03:36:09;;;;;;;15.27;10.90;;;;;;;5.17;70.40;95699.25;4828433;29;20061;-91
2021/11/01 03:38:38;;;;;;;16.58;10.75;;;;;;;4.82;70.80;95665.44;4828705;29;20029;-91
2021/11/01 03:41:11;;;;;;;14.20;10.85;;;;;;;5.06;70.56;95685.41;4828238;29;20052;-90
2021/11/01 03:43:41;;;;;;;14.88;10.63;;;;;;;4.75;70.35;95644.19;4828743;29;20104;-91
2021/11/01 03:46:08;;;;;;;15.05;10.95;;;;;;;5.09;70.35;95692.59;4828648;29;20495;-90
2021/11/01 03:48:42;;;;;;;16.20;11.10;;;;;;;4.82;70.15;95666.19;4828485;29;20038;-90
2021/11/01 03:51:11;;;;;;;14.77;12.07;;;;;;;4.68;71.45;95648.59;4828201;29;20057;-90
2021/11/01 03:53:38;;;;;;;17.42;11.80;;;;;;;4.81;70.59;95666.66;4828326;29;20126;-91
2021/11/01 03:56:05;;;;;;;19.55;12.25;;;;;;;4.88;70.57;95661.00;4828185;29;20061;-89
2021/11/01 03:58:32;;;;;;;17.25;12.10;;;;;;;4.90;71.05;95672.84;4828447;29;20033;-88
2021/11/01 04:00:58;;;;;;;16.73;11.68;;;;;;;4.89;70.51;95667.88;4828496;29;20029;-89
2021/11/01 04:03:25;;;;;;;16.75;11.55;;;;;;;4.83;70.62;95650.81;4828246;29;20030;-89
2021/11/01 04:05:55;;;;;;;19.05;11.80;;;;;;;4.79;70.61;95650.16;4828127;29;20108;-89
2021/11/01 04:11:49;;;;;;;14.52;11.60;;;;;;;5.10;70.97;95691.38;4845104;29;20090;-88
2021/11/01 04:14:18;;;;;;;15.57;11.63;;;;;;;4.65;70.66;95640.66;4827961;29;20033;-89
2021/11/01 04:16:47;;;;;;;17.40;11.98;;;;;;;4.89;70.62;95689.41;4828213;29;20030;-90
2021/11/01 04:21:39;;;;;;;16.40;11.02;;;;;;;4.52;70.85;95621.09;4844256;29;20026;-90
2021/11/01 04:24:05;;;;;;;15.20;11.40;;;;;;;4.60;69.96;95647.34;4827957;29;20026;-90
2021/11/01 04:26:31;;;;;;;16.42;11.52;;;;;;;4.40;70.60;95641.47;4828164;29;20026;-90
2021/11/01 04:28:58;;;;;;;14.77;11.85;;;;;;;4.51;70.83;95647.25;4828115;29;20034;-89
2021/11/01 04:31:31;;;;;;;16.70;12.98;;;;;;;4.42;69.88;95641.75;4842890;29;20461;-89
2021/11/01 04:36:44;;;;;;;16.90;12.52;;;;;;;4.16;70.52;95628.41;4856338;29;20060;-90
2021/11/01 04:39:14;;;;;;;19.38;14.50;;;;;;;3.95;70.76;95604.88;4846189;29;20041;-87
2021/11/01 09:13:15;;;;;;;14.88;11.60;;;;;;;8.69;61.63;95527.38;4867644;29;20140;-87
2021/11/01 09:26:24;;;;;;;13.75;11.35;;;;;;;9.11;60.91;95543.41;4853081;29;20033;-87
2021/11/01 09:29:15;;;;;;;15.38;11.40;;;;;;;8.94;60.24;95510.59;4840021;29;20041;-87
2021/11/01 09:42:48;;;;;;;13.63;10.02;;;;;;;9.56;59.51;95525.88;4859666;29;20320;-86
2021/11/01 09:45:14;;;;;;;19.10;10.15;;;;;;;9.84;73.14;95533.66;4857831;29;20112;-87
2021/11/01 09:47:42;;;;;;;15.60;9.02;;;;;;;9.69;63.48;95480.25;4844979;29;20033;-86
2021/11/01 09:50:10;;;;;;;11.20;8.48;;;;;;;10.15;66.80;95524.97;4831165;29;20500;-87
2021/11/01 09:52:35;;;;;;;11.63;8.60;;;;;;;10.22;63.04;95519.13;4833818;29;20056;-86
2021/11/01 09:55:15;;;;;;;11.27;9.60;;;;;;;10.14;59.62;95496.34;4856675;29;20034;-88
2021/11/01 09:59:10;;;;;;;11.05;8.90;;;;;;;10.26;57.03;95510.81;4840846;29;20062;-86
2021/11/01 10:00:26;;;;;;;11.18;9.48;;;;;;;10.33;56.58;95513.84;4843504;29;20038;-86
2021/11/01 10:02:51;;;;;;;14.95;8.98;;;;;;;10.33;55.80;95497.56;4845145;29;20028;-86
2021/11/01 10:05:25;;;;;;;13.68;10.23;;;;;;;10.42;55.36;95505.56;4844411;29;20030;-87
2021/11/01 10:07:50;;;;;;;12.60;10.25;;;;;;;10.49;56.47;95505.19;4831788;29;20441;-86
2021/11/01 10:10:16;;;;;;;13.20;9.45;;;;;;;10.41;56.29;95485.09;4834333;29;20041;-86
2021/11/01 10:12:44;;;;;;;11.95;8.85;;;;;;;10.69;55.06;95509.81;4841647;29;20425;-86
2021/11/01 10:18:04;;;;;;;11.77;8.93;;;;;;;10.72;54.94;95486.41;4854436;29;20060;-86
2021/11/01 10:20:31;;;;;;;12.20;8.45;;;;;;;10.81;54.74;95486.22;4847266;29;20510;-85
2021/11/01 10:22:57;;;;;;;11.18;8.85;;;;;;;10.94;54.91;95485.84;4831090;29;20490;-86
2021/11/01 10:25:24;;;;;;;10.70;8.45;;;;;;;10.93;52.85;95476.97;4842466;29;20034;-88
2021/11/01 10:27:56;;;;;;;12.38;8.90;;;;;;;11.10;53.03;95485.25;4840760;29;20022;-86
2021/11/01 10:30:25;;;;;;;10.65;8.45;;;;;;;11.01;53.58;95469.13;4845515;29;20029;-86
2021/11/01 10:32:52;;;;;;;11.20;8.32;;;;;;;11.05;53.31;95453.34;4834383;29;20041;-86
2021/11/01 10:35:22;;;;;;;10.18;8.45;;;;;;;11.32;53.08;95464.91;4828896;29;20033;-85
2021/11/01 10:38:09;;;;;;;12.82;8.55;;;;;;;11.45;53.10;95467.97;4853570;29;20032;-85
2021/11/01 10:40:39;;;;;;;11.43;8.32;;;;;;;11.55;52.84;95469.25;4865781;29;20025;-85
2021/11/01 10:43:38;;;;;;;13.02;8.52;;;;;;;11.46;52.46;95443.03;4835415;29;20025;-86
2021/11/01 10:46:57;;;;;;;10.38;8.30;;;;;;;11.50;52.25;95456.38;4851046;29;20586;-85
2021/11/01 11:11:24;;;;;;;11.75;8.32;;;;;;;11.55;52.29;95436.63;4867230;29;20086;-86
2021/11/01 11:50:32;;;;;;;9.65;8.35;;;;;;;12.66;49.37;95415.78;4856966;29;20543;-86
2021/11/01 11:53:14;;;;;;;11.05;8.50;;;;;;;12.89;49.14;95413.81;4828077;29;20041;-85
2021/11/01 11:55:42;;;;;;;9.30;7.43;;;;;;;12.83;48.42;95395.50;4842467;29;20029;-86
2021/11/01 11:58:12;;;;;;;14.27;8.95;;;;;;;13.02;51.15;95409.38;4843626;29;20061;-85
2021/11/01 12:00:39;;;;;;;12.52;8.30;;;;;;;13.03;49.93;95410.13;4845593;29;20034;-85
2021/11/01 12:03:18;;;;;;;10.05;8.07;;;;;;;13.17;49.21;95406.41;4848146;29;20101;-86
2021/11/01 12:05:51;;;;;;;10.05;7.97;;;;;;;13.23;48.78;95398.97;4855012;29;20033;-86
2021/11/01 12:08:25;;;;;;;10.15;8.35;;;;;;;13.17;49.29;95384.59;4837423;29;20037;-87
2021/11/01 12:19:15;;;;;;;9.27;8.27;;;;;;;13.34;49.33;95390.03;4851074;29;20041;-86
2021/11/01 12:21:46;;;;;;;11.25;8.48;;;;;;;13.17;48.13;95365.50;4848474;29;20787;-86
2021/11/01 12:24:21;;;;;;;10.23;7.80;;;;;;;13.05;47.43;95358.59;4838371;29;20033;-86
2021/11/01 12:26:58;;;;;;;8.35;7.55;;;;;;;13.20;48.10;95377.38;4854523;29;20074;-86
2021/11/01 12:29:24;;;;;;;10.35;8.77;;;;;;;13.13;47.78;95362.28;4843057;29;20855;-86
2021/11/01 12:32:04;;;;;;;9.68;8.15;;;;;;;13.02;48.17;95346.69;4845320;29;20029;-87
2021/11/01 12:34:30;;;;;;;9.35;7.97;;;;;;;13.01;48.18;95347.19;4849153;29;20034;-85
2021/11/01 12:37:04;;;;;;;9.50;8.20;;;;;;;13.08;48.82;95352.13;4843430;29;20490;-86
2021/11/01 12:59:03;;;;;;;10.30;8.35;;;;;;;13.25;48.15;95333.78;4859866;29;20055;-87
2021/11/01 13:01:29;;;;;;;8.95;7.47;;;;;;;13.16;47.17;95325.13;4828404;29;20041;-87
2021/11/01 13:07:39;;;;;;;11.80;7.90;;;;;;;13.18;47.48;95317.19;4850444;29;20073;-86
2021/11/01 13:09:48;;;;;;;8.60;7.20;;;;;;;13.23;48.32;95322.63;4845418;29;20048;-87
2021/11/01 13:13:13;;;;;;;8.55;7.60;;;;;;;13.08;47.48;95320.16;4854768;29;20082;-85
2021/11/01 13:20:42;;;;;;;9.77;7.88;;;;;;;12.85;49.04;95294.94;4854698;29;20038;-86
2021/11/01 13:23:09;;;;;;;29.85;9.77;;;;;;;12.96;50.35;95310.53;4843991;29;20033;-86
2021/11/01 13:36:51;;;;;;;12.15;7.88;;;;;;;12.89;49.17;95294.69;4843187;29;20041;-86
2021/11/01 13:39:27;;;;;;;12.23;9.05;;;;;;;12.96;49.15;95296.91;4827008;29;20033;-85
2021/11/01 13:41:54;;;;;;;13.02;8.82;;;;;;;13.02;48.82;95307.78;4859261;29;20033;-86
2021/11/01 13:44:22;;;;;;;13.30;8.55;;;;;;;12.87;49.23;95285.50;4859928;29;20444;-85
2021/11/01 13:46:51;;;;;;;13.10;7.90;;;;;;;12.77;48.74;95268.69;4841903;29;20117;-85
2021/11/01 13:49:19;;;;;;;13.48;8.30;;;;;;;12.92;49.24;95295.66;4826731;29;20114;-85
2021/11/01 13:51:48;;;;;;;12.63;8.23;;;;;;;12.72;48.93;95272.91;4850259;29;20052;-86
2021/11/01 13:54:28;;;;;;;10.23;7.90;;;;;;;12.94;50.04;95310.25;4828115;29;20083;-85
2021/11/01 13:56:57;;;;;;;12.10;8.57;;;;;;;12.94;50.63;95313.00;4841772;29;20033;-85
2021/11/01 14:13:39;;;;;;;14.00;9.30;;;;;;;12.66;52.43;95293.22;4826355;29;20061;-85
2021/11/01 14:16:23;;;;;;;12.30;9.43;;;;;;;12.53;52.17;95289.03;4839818;29;20089;-85
2021/11/01 14:19:00;;;;;;;12.48;9.85;;;;;;;12.54;51.36;95290.50;4816809;29;20035;-86
2021/11/01 15:00:04;;;;;;;12.45;9.52;;;;;;;11.86;52.45;95259.00;4813659;29;20753;-85
2021/11/01 15:13:25;;;;;;;13.35;9.80;;;;;;;11.59;53.78;95233.22;4848672;29;20084;-85
2021/11/01 15:23:34;;;;;;;13.88;10.77;;;;;;;11.53;54.85;95237.88;4848556;29;21376;-85
2021/11/01 15:38:53;;;;;;;22.95;11.23;;;;;;;11.36;54.75;95232.41;4843815;29;20450;-86
2021/11/01 16:19:32;;;;;;;11.32;10.15;;;;;;;11.22;55.54;95222.47;4859015;29;20483;-87
2021/11/01 16:21:58;;;;;;;13.18;10.50;;;;;;;11.22;56.21;95217.03;4852182;29;20033;-87
2021/11/01 16:24:26;;;;;;;14.10;10.88;;;;;;;11.13;56.14;95209.06;4845767;29;20516;-88
2021/11/01 16:26:52;;;;;;;19.77;12.07;;;;;;;11.19;56.04;95207.16;4860888;29;20582;-87
2021/11/01 16:29:20;;;;;;;20.33;11.90;;;;;;;11.18;56.58;95211.81;4831818;29;20486;-87
2021/11/01 16:39:20;;;;;;;13.30;11.57;;;;;;;11.15;56.31;95215.53;4861999;29;20379;-87
2021/11/01 16:41:48;;;;;;;18.33;12.07;;;;;;;11.06;56.56;95199.44;4845491;29;20025;-89
2021/11/01 16:46:48;;;;;;;15.73;11.50;;;;;;;11.24;56.34;95236.31;4861843;29;20029;-87
2021/11/01 16:49:13;;;;;;;15.23;11.45;;;;;;;11.08;56.64;95199.69;4845620;29;20039;-86
2021/11/01 16:51:41;;;;;;;21.25;11.43;;;;;;;11.07;56.56;95198.19;4860948;29;20026;-87
2021/11/01 16:54:09;;;;;;;14.82;11.38;;;;;;;11.27;57.24;95238.06;4860759;29;20046;-87
2021/11/01 16:56:57;;;;;;;14.73;11.20;;;;;;;11.09;56.80;95203.16;4860792;29;20501;-87
2021/11/01 16:59:38;;;;;;;17.60;12.20;;;;;;;11.23;56.50;95229.38;4845322;29;20030;-88
2021/11/01 17:04:49;;;;;;;16.98;13.20;;;;;;;10.98;55.63;95215.47;4862446;29;20033;-88
2021/11/01 17:36:48;;;;;;;26.15;12.32;;;;;;;10.97;58.16;95233.00;4849608;29;20068;-88
2021/11/01 18:51:06;;;;;;;16.08;13.00;;;;;;;10.59;62.48;95260.66;4857671;29;20029;-87
2021/11/01 18:53:38;;;;;;;15.18;12.00;;;;;;;10.46;63.46;95240.09;4846261;29;20062;-87
2021/11/01 18:56:08;;;;;;;14.38;10.55;;;;;;;10.46;62.98;95242.06;4839754;29;20117;-88
2021/11/01 18:58:36;;;;;;;13.77;10.13;;;;;;;10.37;63.66;95242.22;4847412;29;20029;-88
2021/11/01 19:01:03;;;;;;;11.82;10.15;;;;;;;10.46;63.54;95255.63;4844058;29;20037;-86
2021/11/01 19:03:33;;;;;;;12.70;10.32;;;;;;;10.31;63.97;95239.47;4856824;29;20585;-87
2021/11/01 19:06:08;;;;;;;12.90;10.35;;;;;;;10.35;64.36;95244.69;4848789;29;20038;-86
2021/11/01 19:08:53;;;;;;;10.82;9.55;;;;;;;10.31;63.87;95236.03;4848327;29;20261;-87
2021/11/01 19:14:31;;;;;;;18.63;10.35;;;;;;;10.32;64.36;95251.06;4825359;29;20126;-87
2021/11/01 21:27:30;;;;;;;10.70;8.95;;;;;;;10.25;68.01;95214.28;4847136;29;20513;-86
2021/11/01 21:29:56;;;;;;;10.00;8.68;;;;;;;10.13;67.98;95196.41;4869374;29;20029;-86
2021/11/01 21:32:22;;;;;;;10.75;8.75;;;;;;;10.14;67.93;95203.31;4846908;29;20038;-86
2021/11/01 21:35:03;;;;;;;8.68;7.78;;;;;;;10.23;67.58;95212.06;4851732;29;20136;-85
2021/11/01 21:37:29;;;;;;;10.93;8.05;;;;;;;10.14;67.95;95190.50;4836139;29;20494;-86
2021/11/01 21:39:57;;;;;;;10.48;8.43;;;;;;;10.11;67.96;95188.72;4837133;29;20033;-85
2021/11/01 21:42:23;;;;;;;9.60;8.35;;;;;;;10.18;67.96;95196.44;4841635;29;20030;-86
2021/11/01 21:44:49;;;;;;;10.90;8.32;;;;;;;10.26;67.85;95191.34;4842138;29;20124;-86
2021/11/01 21:47:14;;;;;;;9.60;8.27;;;;;;;10.13;67.97;95172.72;4846601;29;20498;-86
2021/11/01 21:49:40;;;;;;;8.65;7.72;;;;;;;10.15;67.83;95181.13;4831455;29;20033;-86
2021/11/01 21:52:06;;;;;;;8.00;7.20;;;;;;;10.19;67.69;95180.91;4857296;29;20033;-86
2021/11/01 21:55:15;;;;;;;8.25;7.03;;;;;;;10.14;67.60;95176.91;4844655;29;20026;-86
2021/11/01 22:20:59;;;;;;;8.85;6.90;;;;;;;10.22;68.23;95148.09;4842791;29;20061;-86
2021/11/01 22:26:48;;;;;;;23.83;7.43;;;;;;;10.13;68.32;95132.03;4846220;29;20108;-86
2021/11/01 22:34:34;;;;;;;7.53;6.75;;;;;;;10.26;68.58;95152.59;4874183;29;20084;-87
2021/11/01 22:40:34;;;;;;;6.78;6.05;;;;;;;10.24;68.53;95139.53;4849674;29;20041;-87
2021/11/01 22:45:22;;;;;;;7.28;6.25;;;;;;;10.15;68.37;95124.13;4864228;29;20026;-86
2021/11/01 22:58:40;;;;;;;10.02;6.10;;;;;;;10.14;68.04;95100.22;4875906;29;20574;-87
2021/11/01 23:01:25;;;;;;;7.85;5.68;;;;;;;10.14;68.13;95095.53;4867604;29;20156;-87
2021/11/01 23:33:47;;;;;;;13.07;10.00;;;;;;;10.06;66.55;95047.63;4863736;29;20032;-87
2021/11/01 23:36:13;;;;;;;11.98;10.05;;;;;;;10.25;66.55;95073.16;4846574;29;20037;-87
2021/11/01 23:38:39;;;;;;;19.85;10.68;;;;;;;10.18;66.63;95054.63;4846982;29;20056;-87
2021/11/01 23:41:05;;;;;;;10.68;9.45;;;;;;;10.21;66.21;95059.06;4847466;29;20033;-86
2021/11/01 23:43:32;;;;;;;10.63;9.52;;;;;;;10.13;66.79;95039.78;4847087;29;20057;-87
2021/11/01 23:45:58;;;;;;;11.68;9.63;;;;;;;10.23;66.78;95051.97;4846638;29;20036;-87
2021/11/01 23:48:23;;;;;;;12.63;9.38;;;;;;;10.22;66.89;95052.41;4863409;29;20546;-87
2021/11/01 23:50:49;;;;;;;10.50;9.40;;;;;;;10.08;66.18;95032.38;4846920;29;20067;-88
2021/11/01 23:53:37;;;;;;;10.68;9.57;;;;;;;10.32;66.46;95061.84;4863383;29;20475;-86
2021/11/01 23:56:06;;;;;;;10.20;8.93;;;;;;;10.24;66.82;95047.28;4862101;29;20035;-87
2021/11/01 23:58:31;;;;;;;10.13;8.40;;;;;;;10.14;66.64;95030.41;4861756;29;20394;-87
